Terminal Aerodrome Forecast
Issued by NWS Cleveland, OH

Home | Current Version | Previous Version | Text Only | Print | Product List | Glossary Off
Versions: 1 2 3 4 5 6 7 8 9 10 11 12 13 14 15 16 17 18 19 20 21 22 23 24 25 26

888
FTUS41 KCLE 220849 AAC
TAFCLE
TAF AMD
KCLE 220849Z 2209/2312 21008KT P6SM FEW040 BKN120
     FM221500 24010KT 6SM HZ BKN040
     FM221800 26012G18KT P6SM SCT045
     FM230100 23005KT P6SM SCT150
     FM230800 VRB02KT 6SM BR SCT200=

USA.gov is the U.S. government's official web portal to all federal, state and local government web resources and services.